Time,TemperatureF,DewpointF,PressureIn,WindDirection,WindDirectionDegrees,WindSpeedMPH,WindSpeedGustMPH,Humidity,HourlyPrecipIn,Conditions,Clouds,dailyrainin,SolarRadiationWatts/m^2,SoftwareType,DateUTC
2013-03-05 00:01:00,21.0,4.0,-100.00,NW,314,2.0,4.0,47,0.00,,,0.00,0.000000,,2013-03-05 09:01:00,
2013-03-05 00:11:00,21.0,4.0,-100.00,NW,314,2.0,4.0,47,0.00,,,0.00,0.000000,,2013-03-05 09:11:00,
2013-03-05 00:21:00,21.0,4.0,-100.00,NW,314,2.0,4.0,47,0.00,,,0.00,0.000000,,2013-03-05 09:21:00,
2013-03-05 00:31:00,21.0,4.0,-100.00,NW,314,2.0,4.0,47,0.00,,,0.00,0.000000,,2013-03-05 09:31:00,
2013-03-05 00:52:00,20.0,3.0,-100.00,NW,325,2.0,4.0,46,0.00,,,0.00,0.000000,,2013-03-05 09:52:00,
2013-03-05 01:01:00,20.0,3.0,-100.00,NW,325,2.0,4.0,46,0.00,,,0.00,0.000000,,2013-03-05 10:01:00,
2013-03-05 01:11:00,20.0,3.0,-100.00,NW,325,2.0,4.0,46,0.00,,,0.00,0.000000,,2013-03-05 10:11:00,
2013-03-05 01:21:00,20.0,3.0,-100.00,NW,325,2.0,4.0,46,0.00,,,0.00,0.000000,,2013-03-05 10:21:00,
2013-03-05 01:32:00,20.0,3.0,-100.00,NW,325,2.0,4.0,46,0.00,,,0.00,0.000000,,2013-03-05 10:32:00,
2013-03-05 01:52:00,20.0,3.0,-100.00,NNW,336,3.0,6.0,47,0.00,,,0.00,0.000000,,2013-03-05 10:52:00,
2013-03-05 02:01:00,20.0,3.0,-100.00,NNW,336,3.0,6.0,47,0.00,,,0.00,0.000000,,2013-03-05 11:01:00,
2013-03-05 02:11:00,20.0,3.0,-100.00,NNW,336,3.0,6.0,47,0.00,,,0.00,0.000000,,2013-03-05 11:11:00,
2013-03-05 02:21:00,20.0,3.0,-100.00,NNW,336,3.0,6.0,47,0.00,,,0.00,0.000000,,2013-03-05 11:21:00,
2013-03-05 02:32:00,20.0,3.0,-100.00,NNW,336,3.0,6.0,47,0.00,,,0.00,0.000000,,2013-03-05 11:32:00,
2013-03-05 02:52:00,18.0,3.0,-100.00,North,355,2.0,5.0,50,0.00,,,0.00,0.000000,,2013-03-05 11:52:00,
2013-03-05 03:02:00,18.0,3.0,-100.00,North,355,2.0,5.0,50,0.00,,,0.00,0.000000,,2013-03-05 12:02:00,
2013-03-05 03:11:00,18.0,3.0,-100.00,North,355,2.0,5.0,50,0.00,,,0.00,0.000000,,2013-03-05 12:11:00,
2013-03-05 03:22:00,18.0,3.0,-100.00,North,355,2.0,5.0,50,0.00,,,0.00,0.000000,,2013-03-05 12:22:00,
2013-03-05 03:32:00,18.0,3.0,-100.00,North,355,2.0,5.0,50,0.00,,,0.00,0.000000,,2013-03-05 12:32:00,
2013-03-05 03:52:00,19.0,2.0,-100.00,NNW,331,2.0,5.0,47,0.00,,,0.00,0.000000,,2013-03-05 12:52:00,
2013-03-05 04:02:00,19.0,2.0,-100.00,NNW,331,2.0,5.0,47,0.00,,,0.00,0.000000,,2013-03-05 13:02:00,
2013-03-05 04:11:00,19.0,2.0,-100.00,NNW,331,2.0,5.0,47,0.00,,,0.00,0.000000,,2013-03-05 13:11:00,
2013-03-05 04:21:00,19.0,2.0,-100.00,NNW,331,2.0,5.0,47,0.00,,,0.00,0.000000,,2013-03-05 13:21:00,
2013-03-05 04:31:00,19.0,2.0,-100.00,NNW,331,2.0,5.0,47,0.00,,,0.00,0.000000,,2013-03-05 13:31:00,
2013-03-05 04:52:00,20.0,1.0,-100.00,NNW,347,3.0,6.0,42,0.00,,,0.00,0.000000,,2013-03-05 13:52:00,
2013-03-05 05:02:00,20.0,1.0,-100.00,NNW,347,3.0,6.0,42,0.00,,,0.00,0.000000,,2013-03-05 14:02:00,
2013-03-05 05:11:00,20.0,1.0,-100.00,NNW,347,3.0,6.0,42,0.00,,,0.00,0.000000,,2013-03-05 14:11:00,
2013-03-05 05:21:00,20.0,1.0,-100.00,NNW,347,3.0,6.0,42,0.00,,,0.00,0.000000,,2013-03-05 14:21:00,
2013-03-05 05:31:00,20.0,1.0,-100.00,NNW,347,3.0,6.0,42,0.00,,,0.00,0.000000,,2013-03-05 14:31:00,
2013-03-05 05:52:00,19.0,2.0,-100.00,NNW,344,3.0,5.0,46,0.00,,,0.00,0.000000,,2013-03-05 14:52:00,
2013-03-05 06:01:00,19.0,2.0,-100.00,NNW,344,3.0,5.0,46,0.00,,,0.00,0.000000,,2013-03-05 15:01:00,
2013-03-05 06:11:00,19.0,2.0,-100.00,NNW,344,3.0,5.0,46,0.00,,,0.00,0.000000,,2013-03-05 15:11:00,
2013-03-05 06:21:00,19.0,2.0,-100.00,NNW,344,3.0,5.0,46,0.00,,,0.00,0.000000,,2013-03-05 15:21:00,
2013-03-05 06:31:00,19.0,2.0,-100.00,NNW,344,3.0,5.0,46,0.00,,,0.00,0.000000,,2013-03-05 15:31:00,
2013-03-05 06:52:00,20.0,1.0,-100.00,NW,307,3.0,5.0,42,0.00,,,-99.99,0.000000,,2013-03-05 15:52:00,
2013-03-05 07:01:00,20.0,1.0,-100.00,NW,307,3.0,5.0,42,0.00,,,-99.99,0.000000,,2013-03-05 16:01:00,
2013-03-05 07:11:00,20.0,1.0,-100.00,NW,307,3.0,5.0,42,0.00,,,-99.99,0.000000,,2013-03-05 16:11:00,
2013-03-05 07:21:00,20.0,1.0,-100.00,NW,307,3.0,5.0,42,0.00,,,-99.99,0.000000,,2013-03-05 16:21:00,
2013-03-05 07:31:00,20.0,1.0,-100.00,NW,307,3.0,5.0,42,0.00,,,-99.99,0.000000,,2013-03-05 16:31:00,
2013-03-05 07:52:00,20.0,0.0,-100.00,NW,309,4.0,7.0,41,0.00,,,0.00,0.000000,,2013-03-05 16:52:00,
2013-03-05 08:01:00,20.0,0.0,-100.00,NW,309,4.0,7.0,41,0.00,,,0.00,0.000000,,2013-03-05 17:01:00,
2013-03-05 08:11:00,20.0,0.0,-100.00,NW,309,4.0,7.0,41,0.00,,,0.00,0.000000,,2013-03-05 17:11:00,
2013-03-05 08:21:00,20.0,0.0,-100.00,NW,309,4.0,7.0,41,0.00,,,0.00,0.000000,,2013-03-05 17:21:00,
2013-03-05 08:32:00,20.0,0.0,-100.00,NW,309,4.0,7.0,41,0.00,,,0.00,0.000000,,2013-03-05 17:32:00,
2013-03-05 08:52:00,20.0,2.0,-100.00,NNW,347,4.0,6.0,44,0.00,,,0.00,23.000000,,2013-03-05 17:52:00,
2013-03-05 09:01:00,20.0,2.0,-100.00,NNW,347,4.0,6.0,44,0.00,,,0.00,23.000000,,2013-03-05 18:01:00,
2013-03-05 09:11:00,20.0,2.0,-100.00,NNW,347,4.0,6.0,44,0.00,,,0.00,23.000000,,2013-03-05 18:11:00,
2013-03-05 09:21:00,20.0,2.0,-100.00,NNW,347,4.0,6.0,44,0.00,,,0.00,23.000000,,2013-03-05 18:21:00,
2013-03-05 09:31:00,20.0,2.0,-100.00,NNW,347,4.0,6.0,44,0.00,,,0.00,23.000000,,2013-03-05 18:31:00,
2013-03-05 09:53:00,21.0,1.0,-100.00,NNW,344,2.0,5.0,41,0.00,,,0.00,84.000000,,2013-03-05 18:53:00,
2013-03-05 10:01:00,21.0,1.0,-100.00,NNW,344,2.0,5.0,41,0.00,,,0.00,84.000000,,2013-03-05 19:01:00,
2013-03-05 10:11:00,21.0,1.0,-100.00,NNW,344,2.0,5.0,41,0.00,,,0.00,84.000000,,2013-03-05 19:11:00,
2013-03-05 10:21:00,21.0,1.0,-100.00,NNW,344,2.0,5.0,41,0.00,,,0.00,84.000000,,2013-03-05 19:21:00,
2013-03-05 10:31:00,21.0,1.0,-100.00,NNW,344,2.0,5.0,41,0.00,,,0.00,84.000000,,2013-03-05 19:31:00,
2013-03-05 10:52:00,22.0,1.0,-100.00,NW,325,2.0,4.0,40,0.00,,,0.00,177.000000,,2013-03-05 19:52:00,
2013-03-05 11:01:00,22.0,1.0,-100.00,NW,325,2.0,4.0,40,0.00,,,0.00,177.000000,,2013-03-05 20:01:00,
2013-03-05 11:11:00,22.0,1.0,-100.00,NW,325,2.0,4.0,40,0.00,,,0.00,177.000000,,2013-03-05 20:11:00,
2013-03-05 11:21:00,22.0,1.0,-100.00,NW,325,2.0,4.0,40,0.00,,,0.00,177.000000,,2013-03-05 20:21:00,
2013-03-05 11:32:00,22.0,1.0,-100.00,NW,325,2.0,4.0,40,0.00,,,0.00,177.000000,,2013-03-05 20:32:00,
2013-03-05 11:52:00,23.0,1.0,-100.00,WNW,282,3.0,6.0,38,0.00,,,0.00,357.000000,,2013-03-05 20:52:00,
2013-03-05 12:01:00,23.0,1.0,-100.00,WNW,282,3.0,6.0,38,0.00,,,0.00,357.000000,,2013-03-05 21:01:00,
2013-03-05 12:11:00,23.0,1.0,-100.00,WNW,282,3.0,6.0,38,0.00,,,0.00,357.000000,,2013-03-05 21:11:00,
2013-03-05 12:21:00,23.0,1.0,-100.00,WNW,282,3.0,6.0,38,0.00,,,0.00,357.000000,,2013-03-05 21:21:00,
2013-03-05 12:31:00,23.0,1.0,-100.00,WNW,282,3.0,6.0,38,0.00,,,0.00,357.000000,,2013-03-05 21:31:00,
2013-03-05 12:52:00,23.0,4.0,-100.00,NNW,340,4.0,6.0,43,0.00,,,-99.99,311.000000,,2013-03-05 21:52:00,
2013-03-05 13:01:00,23.0,4.0,-100.00,NNW,340,4.0,6.0,43,0.00,,,-99.99,311.000000,,2013-03-05 22:01:00,
2013-03-05 13:11:00,23.0,4.0,-100.00,NNW,340,4.0,6.0,43,0.00,,,-99.99,311.000000,,2013-03-05 22:11:00,
2013-03-05 13:21:00,23.0,4.0,-100.00,NNW,340,4.0,6.0,43,0.00,,,-99.99,311.000000,,2013-03-05 22:21:00,
2013-03-05 13:31:00,23.0,4.0,-100.00,NNW,340,4.0,6.0,43,0.00,,,-99.99,311.000000,,2013-03-05 22:31:00,
2013-03-05 13:52:00,26.0,3.0,-100.00,NW,312,1.0,2.0,37,0.00,,,0.00,379.000000,,2013-03-05 22:52:00,
2013-03-05 14:01:00,26.0,3.0,-100.00,NW,312,1.0,2.0,37,0.00,,,0.00,379.000000,,2013-03-05 23:01:00,
2013-03-05 14:11:00,26.0,3.0,-100.00,NW,312,1.0,2.0,37,0.00,,,0.00,379.000000,,2013-03-05 23:11:00,
2013-03-05 14:21:00,26.0,3.0,-100.00,NW,312,1.0,2.0,37,0.00,,,0.00,379.000000,,2013-03-05 23:21:00,
2013-03-05 14:32:00,26.0,3.0,-100.00,NW,312,1.0,2.0,37,0.00,,,0.00,379.000000,,2013-03-05 23:32:00,
2013-03-05 14:52:00,26.0,4.0,-100.00,NW,305,1.0,2.0,38,0.00,,,0.00,318.000000,,2013-03-05 23:52:00,
2013-03-05 15:01:00,26.0,4.0,-100.00,NW,305,1.0,2.0,38,0.00,,,0.00,318.000000,,2013-03-06 00:01:00,
2013-03-05 15:11:00,26.0,4.0,-100.00,NW,305,1.0,2.0,38,0.00,,,0.00,318.000000,,2013-03-06 00:11:00,
2013-03-05 15:21:00,26.0,4.0,-100.00,NW,305,1.0,2.0,38,0.00,,,0.00,318.000000,,2013-03-06 00:21:00,
2013-03-05 15:32:00,26.0,4.0,-100.00,NW,305,1.0,2.0,38,0.00,,,0.00,318.000000,,2013-03-06 00:32:00,
2013-03-05 15:52:00,25.0,3.0,-100.00,NNW,338,2.0,4.0,38,0.00,,,-99.99,236.000000,,2013-03-06 00:52:00,
2013-03-05 16:01:00,25.0,3.0,-100.00,NNW,338,2.0,4.0,38,0.00,,,-99.99,236.000000,,2013-03-06 01:01:00,
2013-03-05 16:11:00,25.0,3.0,-100.00,NNW,338,2.0,4.0,38,0.00,,,-99.99,236.000000,,2013-03-06 01:11:00,
2013-03-05 16:21:00,25.0,3.0,-100.00,NNW,338,2.0,4.0,38,0.00,,,-99.99,236.000000,,2013-03-06 01:21:00,
2013-03-05 16:31:00,25.0,3.0,-100.00,NNW,338,2.0,4.0,38,0.00,,,-99.99,236.000000,,2013-03-06 01:31:00,
2013-03-05 16:52:00,27.0,4.0,-100.00,NW,306,1.0,3.0,36,0.00,,,0.00,157.000000,,2013-03-06 01:52:00,
2013-03-05 17:01:00,27.0,4.0,-100.00,NW,306,1.0,3.0,36,0.00,,,0.00,157.000000,,2013-03-06 02:01:00,
2013-03-05 17:11:00,27.0,4.0,-100.00,NW,306,1.0,3.0,36,0.00,,,0.00,157.000000,,2013-03-06 02:11:00,
2013-03-05 17:21:00,27.0,4.0,-100.00,NW,306,1.0,3.0,36,0.00,,,0.00,157.000000,,2013-03-06 02:21:00,
2013-03-05 17:31:00,27.0,4.0,-100.00,NW,306,1.0,3.0,36,0.00,,,0.00,157.000000,,2013-03-06 02:31:00,
2013-03-05 18:01:00,25.0,0.0,-100.00,NNW,340,1.0,3.0,33,0.00,,,0.00,49.000000,,2013-03-06 03:01:00,
2013-03-05 18:11:00,25.0,0.0,-100.00,NNW,340,1.0,3.0,33,0.00,,,0.00,49.000000,,2013-03-06 03:11:00,
2013-03-05 18:21:00,25.0,0.0,-100.00,NNW,340,1.0,3.0,33,0.00,,,0.00,49.000000,,2013-03-06 03:21:00,
2013-03-05 18:31:00,25.0,0.0,-100.00,NNW,340,1.0,3.0,33,0.00,,,0.00,49.000000,,2013-03-06 03:31:00,
2013-03-05 18:52:00,23.0,1.0,-100.00,NW,308,2.0,3.0,37,0.00,,,0.00,5.000000,,2013-03-06 03:52:00,
2013-03-05 19:11:00,23.0,1.0,-100.00,NW,308,2.0,3.0,37,0.00,,,0.00,5.000000,,2013-03-06 04:11:00,
2013-03-05 19:21:00,23.0,1.0,-100.00,NW,308,2.0,3.0,37,0.00,,,0.00,5.000000,,2013-03-06 04:21:00,
2013-03-05 19:31:00,23.0,1.0,-100.00,NW,308,2.0,3.0,37,0.00,,,0.00,5.000000,,2013-03-06 04:31:00,
2013-03-05 19:52:00,22.0,0.0,-100.00,NW,319,1.0,3.0,38,0.00,,,0.00,0.000000,,2013-03-06 04:52:00,
2013-03-05 20:01:00,22.0,0.0,-100.00,NW,319,1.0,3.0,38,0.00,,,0.00,0.000000,,2013-03-06 05:01:00,
2013-03-05 20:11:00,22.0,0.0,-100.00,NW,319,1.0,3.0,38,0.00,,,0.00,0.000000,,2013-03-06 05:11:00,
2013-03-05 20:22:00,22.0,0.0,-100.00,NW,319,1.0,3.0,38,0.00,,,0.00,0.000000,,2013-03-06 05:22:00,
2013-03-05 20:32:00,22.0,0.0,-100.00,NW,319,1.0,3.0,38,0.00,,,0.00,0.000000,,2013-03-06 05:32:00,
2013-03-05 20:52:00,22.0,1.0,-100.00,NNW,327,1.0,2.0,39,0.00,,,0.00,0.000000,,2013-03-06 05:52:00,
2013-03-05 21:01:00,22.0,1.0,-100.00,NNW,327,1.0,2.0,39,0.00,,,0.00,0.000000,,2013-03-06 06:01:00,
2013-03-05 21:11:00,22.0,1.0,-100.00,NNW,327,1.0,2.0,39,0.00,,,0.00,0.000000,,2013-03-06 06:11:00,
2013-03-05 21:22:00,22.0,1.0,-100.00,NNW,327,1.0,2.0,39,0.00,,,0.00,0.000000,,2013-03-06 06:22:00,
2013-03-05 21:31:00,22.0,1.0,-100.00,NNW,327,1.0,2.0,39,0.00,,,0.00,0.000000,,2013-03-06 06:31:00,
2013-03-05 21:52:00,21.0,2.0,-100.00,NNW,331,2.0,4.0,42,0.00,,,0.00,0.000000,,2013-03-06 06:52:00,
2013-03-05 22:01:00,21.0,2.0,-100.00,NNW,331,2.0,4.0,42,0.00,,,0.00,0.000000,,2013-03-06 07:01:00,
2013-03-05 22:11:00,21.0,2.0,-100.00,NNW,331,2.0,4.0,42,0.00,,,0.00,0.000000,,2013-03-06 07:11:00,
2013-03-05 22:22:00,21.0,2.0,-100.00,NNW,331,2.0,4.0,42,0.00,,,0.00,0.000000,,2013-03-06 07:22:00,
2013-03-05 22:31:00,21.0,2.0,-100.00,NNW,331,2.0,4.0,42,0.00,,,0.00,0.000000,,2013-03-06 07:31:00,
2013-03-05 22:52:00,21.0,1.0,-100.00,NW,308,2.0,4.0,41,0.00,,,0.00,0.000000,,2013-03-06 07:52:00,
2013-03-05 23:01:00,21.0,1.0,-100.00,NW,308,2.0,4.0,41,0.00,,,0.00,0.000000,,2013-03-06 08:01:00,
2013-03-05 23:11:00,21.0,1.0,-100.00,NW,308,2.0,4.0,41,0.00,,,0.00,0.000000,,2013-03-06 08:11:00,
2013-03-05 23:21:00,21.0,1.0,-100.00,NW,308,2.0,4.0,41,0.00,,,0.00,0.000000,,2013-03-06 08:21:00,
2013-03-05 23:31:00,21.0,1.0,-100.00,NW,308,2.0,4.0,41,0.00,,,0.00,0.000000,,2013-03-06 08:31:00,
2013-03-05 23:52:00,22.0,2.0,-100.00,NNW,333,2.0,4.0,41,0.00,,,0.00,0.000000,,2013-03-06 08:52:00,